Time;durP1;ratioP1;P1;durP2;ratioP2;P2;SDS_P1;SDS_P2;PMS_P1;PMS_P2;Temp;Humidity;BMP_temperature;BMP_pressure;BME280_temperature;BME280_humidity;BME280_pressure;Samples;Min_cycle;Max_cycle;Signal;HPM_P1;HPM_P2
2022/05/02 00:01:29;;;;;;;32.95;16.23;;;;;;;-149.78;100.00;50236.75;4683189;30;20121;-68
2022/05/02 00:03:54;;;;;;;34.03;18.00;;;;;;;-149.78;100.00;50254.34;4683177;30;20105;-68
2022/05/02 00:06:20;;;;;;;32.50;17.65;;;;;;;-149.78;100.00;50275.88;4683204;30;20447;-68
2022/05/02 00:08:46;;;;;;;82.43;35.72;;;;;;;-149.78;100.00;50291.50;4683039;30;20410;-67
2022/05/02 00:11:11;;;;;;;78.55;34.20;;;;;;;-149.78;100.00;50275.88;4683000;30;20074;-68
2022/05/02 00:13:38;;;;;;;43.75;21.67;;;;;;;-149.78;100.00;50275.88;4710165;30;20037;-68
2022/05/02 00:16:06;;;;;;;37.53;20.13;;;;;;;-149.78;100.00;50248.50;4702100;30;20422;-68
2022/05/02 00:18:32;;;;;;;33.97;18.05;;;;;;;-149.78;100.00;50268.03;4716509;30;20040;-68
2022/05/02 00:20:58;;;;;;;34.10;17.40;;;;;;;-149.78;100.00;50279.78;4717614;30;20037;-68
2022/05/02 00:23:23;;;;;;;34.88;18.23;;;;;;;-149.78;100.00;50309.13;4716439;30;20057;-68
2022/05/02 00:25:50;;;;;;;31.88;17.65;;;;;;;-149.78;100.00;50307.16;4687676;30;20052;-68
2022/05/02 00:28:15;;;;;;;36.53;17.75;;;;;;;-149.78;100.00;50256.31;4717466;30;20045;-67
2022/05/02 00:30:41;;;;;;;36.60;19.13;;;;;;;-149.78;100.00;50311.06;4717390;30;20110;-68
2022/05/02 00:33:08;;;;;;;33.65;17.45;;;;;;;-149.78;100.00;50283.69;4701619;30;20033;-68
2022/05/02 00:35:33;;;;;;;36.42;18.35;;;;;;;-149.78;100.00;50309.13;4717381;30;20045;-68
2022/05/02 00:37:59;;;;;;;33.55;17.65;;;;;;;-149.78;100.00;50279.78;4701601;30;20048;-68
2022/05/02 00:40:25;;;;;;;31.55;16.50;;;;;;;-149.78;100.00;50281.75;4717341;30;20111;-68
2022/05/02 00:42:51;;;;;;;33.08;16.92;;;;;;;-149.78;100.00;50287.59;4717304;30;20041;-68
2022/05/02 00:45:18;;;;;;;28.70;15.93;;;;;;;-149.78;100.00;50291.50;4717231;30;20041;-68
2022/05/02 00:47:56;;;;;;;31.27;14.82;;;;;;;-149.78;100.00;50299.34;4717153;30;20041;-68
2022/05/02 00:50:37;;;;;;;27.67;15.45;;;;;;;-149.78;100.00;50311.06;4717055;30;20513;-68
2022/05/02 00:53:05;;;;;;;24.75;14.63;;;;;;;-149.78;100.00;50285.66;4715909;30;20040;-68
2022/05/02 00:55:32;;;;;;;26.33;15.02;;;;;;;-149.78;100.00;50299.34;4717027;30;20041;-67
2022/05/02 00:57:59;;;;;;;27.30;14.85;;;;;;;-149.78;100.00;50273.91;4716964;30;20033;-67
2022/05/02 01:00:29;;;;;;;28.20;15.85;;;;;;;-149.78;100.00;50295.44;4716961;30;20459;-68
2022/05/02 01:03:00;;;;;;;27.42;15.00;;;;;;;-149.78;100.00;50283.69;4716782;30;20115;-68
2022/05/02 01:05:27;;;;;;;24.63;14.18;;;;;;;-149.78;100.00;50287.59;4716924;30;20463;-68
2022/05/02 01:07:53;;;;;;;28.05;15.18;;;;;;;-149.78;100.00;50264.13;4701255;30;20158;-68
2022/05/02 01:10:20;;;;;;;27.75;15.13;;;;;;;-149.78;100.00;50283.69;4715738;30;20064;-68
2022/05/02 01:12:48;;;;;;;27.92;14.70;;;;;;;-149.78;100.00;50264.13;4716486;30;20556;-68
2022/05/02 01:15:16;;;;;;;29.20;15.63;;;;;;;-149.78;100.00;50262.19;4716525;30;20107;-68
2022/05/02 01:17:43;;;;;;;24.10;14.30;;;;;;;-149.78;100.00;50303.25;4716773;30;20513;-68
2022/05/02 01:20:13;;;;;;;27.67;14.32;;;;;;;-149.78;100.00;50291.50;4715672;30;20128;-68
2022/05/02 01:22:38;;;;;;;25.92;14.70;;;;;;;-149.78;100.00;50299.34;4716609;30;20037;-68
2022/05/02 01:25:05;;;;;;;26.52;13.88;;;;;;;-149.78;100.00;50299.34;4716736;30;20037;-68
2022/05/02 01:27:31;;;;;;;22.10;13.32;;;;;;;-149.78;100.00;50289.56;4716654;30;20080;-67
2022/05/02 01:29:56;;;;;;;25.38;14.27;;;;;;;-149.78;100.00;50289.56;4700999;30;20139;-68
2022/05/02 01:32:22;;;;;;;23.92;13.32;;;;;;;-149.78;100.00;50297.38;4715421;30;20033;-67
2022/05/02 01:34:47;;;;;;;24.75;13.93;;;;;;;-149.78;100.00;50283.69;4716393;30;20140;-68
2022/05/02 01:37:14;;;;;;;24.48;13.27;;;;;;;-149.78;100.00;50271.97;4716524;30;20082;-68
2022/05/02 01:39:41;;;;;;;25.25;13.20;;;;;;;-149.78;100.00;50287.59;4700969;30;20064;-68
2022/05/02 01:42:11;;;;;;;24.33;13.30;;;;;;;-149.78;100.00;50281.75;4716415;30;20037;-68
2022/05/02 01:44:39;;;;;;;23.08;13.40;;;;;;;-149.78;100.00;50268.03;4716244;30;20033;-68
2022/05/02 01:47:07;;;;;;;22.83;13.00;;;;;;;-149.78;100.00;50283.69;4716377;30;20044;-67
2022/05/02 01:49:33;;;;;;;20.27;11.55;;;;;;;-149.78;100.00;50299.34;4700658;30;20403;-68
2022/05/02 01:51:58;;;;;;;21.67;12.50;;;;;;;-149.78;100.00;50307.16;4716262;30;20041;-67
2022/05/02 01:54:25;;;;;;;30.25;13.02;;;;;;;-149.78;100.00;50291.50;4715064;30;20045;-67
2022/05/02 01:56:51;;;;;;;26.45;14.13;;;;;;;-149.78;100.00;50271.97;4700735;30;20091;-67
2022/05/02 01:59:16;;;;;;;24.90;13.77;;;;;;;-149.78;100.00;50299.34;4704888;30;20096;-68
2022/05/02 02:01:42;;;;;;;24.48;13.73;;;;;;;-149.78;100.00;50285.66;4699815;30;20064;-67
2022/05/02 02:06:52;;;;;;;29.35;15.45;;;;;;;-149.78;100.00;50271.97;4716029;30;20045;-67
2022/05/02 02:09:18;;;;;;;30.77;16.33;;;;;;;-149.78;100.00;50297.38;4715751;30;20115;-68
2022/05/02 02:11:44;;;;;;;32.58;16.48;;;;;;;-149.78;100.00;50279.78;4716029;30;20045;-67
2022/05/02 02:14:10;;;;;;;33.22;17.45;;;;;;;-149.78;100.00;50268.03;4716051;30;20056;-68
2022/05/02 02:16:35;;;;;;;30.40;16.50;;;;;;;-149.78;100.00;50271.97;4715747;30;20041;-68
2022/05/02 02:19:01;;;;;;;33.67;17.30;;;;;;;-149.78;100.00;50271.97;4700388;30;20422;-68
2022/05/02 02:21:27;;;;;;;31.95;17.08;;;;;;;-149.78;100.00;50291.50;4716029;30;20065;-68
2022/05/02 02:23:53;;;;;;;36.05;17.85;;;;;;;-149.78;100.00;50275.88;4686996;30;20045;-68
2022/05/02 02:26:19;;;;;;;37.88;17.58;;;;;;;-149.78;100.00;50289.56;4715209;30;20041;-68
2022/05/02 02:28:45;;;;;;;33.80;17.75;;;;;;;-149.78;100.00;50291.50;4718199;30;20037;-67
2022/05/02 02:31:10;;;;;;;34.92;18.38;;;;;;;-149.78;100.00;50291.50;4719182;30;20405;-67
2022/05/02 02:33:37;;;;;;;41.13;18.73;;;;;;;-149.78;100.00;50314.97;4703452;30;20470;-68
2022/05/02 02:36:04;;;;;;;32.83;17.25;;;;;;;-149.78;100.00;50283.69;4717948;30;20048;-68
2022/05/02 02:38:29;;;;;;;30.65;16.48;;;;;;;-149.78;100.00;50299.34;4719298;30;20052;-68
2022/05/02 02:40:56;;;;;;;34.92;16.50;;;;;;;-149.78;100.00;50291.50;4717689;30;20076;-67
2022/05/02 02:43:21;;;;;;;30.08;16.58;;;;;;;-149.78;100.00;50283.69;4703500;30;20143;-67
2022/05/02 02:45:47;;;;;;;30.95;16.10;;;;;;;-149.78;100.00;50297.38;4719005;30;20120;-68
2022/05/02 02:48:12;;;;;;;33.47;16.08;;;;;;;-149.78;100.00;50322.81;4719033;30;20045;-68
2022/05/02 02:50:38;;;;;;;32.90;16.20;;;;;;;-149.78;100.00;50299.34;4718882;30;20103;-68
2022/05/02 02:53:04;;;;;;;30.45;16.17;;;;;;;-149.78;100.00;50271.97;4703382;30;20042;-68
2022/05/02 02:55:30;;;;;;;30.98;15.50;;;;;;;-149.78;100.00;50322.81;4676876;30;20487;-67
2022/05/02 02:57:56;;;;;;;28.60;15.88;;;;;;;-149.78;100.00;50287.59;4696733;30;20095;-67
2022/05/02 03:00:22;;;;;;;30.42;16.15;;;;;;;-149.78;100.00;50295.44;4718995;30;20037;-68
2022/05/02 03:02:48;;;;;;;30.45;16.38;;;;;;;-149.78;100.00;50303.25;4718622;30;20481;-67
2022/05/02 03:07:59;;;;;;;31.75;15.27;;;;;;;-149.78;100.00;50283.69;4718701;30;20508;-67
2022/05/02 03:10:28;;;;;;;33.25;15.82;;;;;;;-149.78;100.00;50287.59;4718726;30;20037;-67
2022/05/02 03:12:54;;;;;;;28.80;15.43;;;;;;;-149.78;100.00;50309.13;4702808;30;20099;-68
2022/05/02 03:15:20;;;;;;;29.77;15.30;;;;;;;-149.78;100.00;50295.44;4718671;30;20054;-67
2022/05/02 03:17:46;;;;;;;28.77;15.43;;;;;;;-149.78;100.00;50332.59;4718453;30;20583;-67
2022/05/02 03:20:12;;;;;;;27.42;14.88;;;;;;;-149.78;100.00;50301.28;4718557;30;20044;-68
2022/05/02 03:22:38;;;;;;;25.30;13.77;;;;;;;-149.78;100.00;50295.44;4718372;30;20060;-68
2022/05/02 03:25:04;;;;;;;28.25;14.00;;;;;;;-149.78;100.00;50311.06;4718371;30;20060;-67
2022/05/02 03:27:29;;;;;;;28.85;15.13;;;;;;;-149.78;100.00;50293.47;4718469;30;20621;-68
2022/05/02 03:29:55;;;;;;;24.25;13.32;;;;;;;-149.78;100.00;50287.59;4718267;30;20049;-68
2022/05/02 03:32:21;;;;;;;26.27;13.80;;;;;;;-149.78;100.00;50287.59;4717943;30;20570;-67
2022/05/02 03:34:46;;;;;;;25.83;13.93;;;;;;;-149.78;100.00;50307.16;4718292;30;20043;-68
2022/05/02 03:37:12;;;;;;;24.98;13.20;;;;;;;-149.78;100.00;50326.72;4702806;30;20048;-68
2022/05/02 03:39:37;;;;;;;25.05;12.93;;;;;;;-149.78;100.00;50334.53;4710596;30;20040;-67
2022/05/02 03:42:04;;;;;;;22.25;12.25;;;;;;;-149.78;100.00;50322.81;4717995;30;20471;-67
2022/05/02 03:44:30;;;;;;;24.92;13.32;;;;;;;-149.78;100.00;50311.06;4687813;30;20045;-67
2022/05/02 03:46:55;;;;;;;24.58;13.02;;;;;;;-149.78;100.00;50309.13;4700606;30;20052;-67
2022/05/02 03:49:21;;;;;;;23.17;12.18;;;;;;;-149.78;100.00;50330.63;4713948;30;20442;-68
2022/05/02 03:51:46;;;;;;;22.33;13.38;;;;;;;-149.78;100.00;50281.75;4717807;30;20068;-68
2022/05/02 03:54:12;;;;;;;26.02;13.40;;;;;;;-149.78;100.00;50354.09;4717814;30;20037;-68
2022/05/02 03:56:37;;;;;;;26.67;13.95;;;;;;;-149.78;100.00;50340.41;4708090;30;20132;-67
2022/05/02 03:59:03;;;;;;;27.65;13.80;;;;;;;-149.78;100.00;50320.84;4716573;30;20081;-67
2022/05/02 04:01:29;;;;;;;29.60;14.70;;;;;;;-149.78;100.00;50268.03;4717611;30;20126;-67
2022/05/02 04:03:54;;;;;;;31.40;15.50;;;;;;;-149.78;100.00;50313.03;4708377;30;20041;-67
2022/05/02 04:06:22;;;;;;;27.65;14.27;;;;;;;-149.78;100.00;50295.44;4700115;30;20128;-68
2022/05/02 04:08:48;;;;;;;29.30;14.15;;;;;;;-149.78;100.00;50354.09;4700178;30;20049;-68
2022/05/02 04:11:14;;;;;;;27.38;14.27;;;;;;;-149.78;100.00;50283.69;4684596;30;20518;-67
2022/05/02 04:13:39;;;;;;;28.33;14.95;;;;;;;-149.78;100.00;50326.72;4704348;30;20045;-67
2022/05/02 04:16:05;;;;;;;29.88;15.50;;;;;;;-149.78;100.00;50330.63;4717459;30;20124;-68
2022/05/02 04:18:30;;;;;;;25.25;13.85;;;;;;;-149.78;100.00;50277.81;4717588;30;20114;-67
2022/05/02 04:20:56;;;;;;;26.98;14.85;;;;;;;-149.78;100.00;50322.81;4717514;30;20552;-67
2022/05/02 04:23:21;;;;;;;29.20;15.30;;;;;;;-149.78;100.00;50334.53;4716312;30;20045;-67
2022/05/02 04:25:48;;;;;;;33.38;16.45;;;;;;;-149.78;100.00;50295.44;4717453;30;20506;-67
2022/05/02 04:28:13;;;;;;;28.83;15.40;;;;;;;-149.78;100.00;50309.13;4717487;30;20057;-67
2022/05/02 04:30:39;;;;;;;28.63;14.50;;;;;;;-149.78;100.00;50277.81;4716430;30;20099;-67
2022/05/02 04:33:05;;;;;;;29.75;15.43;;;;;;;-149.78;100.00;50279.78;4701584;30;20041;-68
2022/05/02 04:35:31;;;;;;;29.33;15.35;;;;;;;-149.78;100.00;50346.28;4717262;30;20041;-67
2022/05/02 04:37:58;;;;;;;31.25;15.80;;;;;;;-149.78;100.00;50322.81;4717408;30;20605;-68
2022/05/02 04:40:24;;;;;;;30.75;15.77;;;;;;;-149.78;100.00;50326.72;4717318;30;20687;-67
2022/05/02 04:42:50;;;;;;;31.48;15.98;;;;;;;-149.78;100.00;50322.81;4717081;30;20045;-67
2022/05/02 04:45:15;;;;;;;30.00;15.93;;;;;;;-149.78;100.00;50330.63;4717074;30;20107;-67
2022/05/02 04:47:41;;;;;;;30.73;16.58;;;;;;;-149.78;100.00;50326.72;4717098;30;20036;-67
2022/05/02 04:50:07;;;;;;;28.75;14.88;;;;;;;-149.78;100.00;50330.63;4716379;30;20049;-67
2022/05/02 04:52:33;;;;;;;32.80;17.20;;;;;;;-149.78;100.00;50295.44;4701632;30;20041;-67
2022/05/02 04:54:59;;;;;;;27.27;14.98;;;;;;;-149.78;100.00;50322.81;4716945;30;20048;-67
2022/05/02 04:57:25;;;;;;;31.42;16.55;;;;;;;-149.78;100.00;50299.34;4715787;30;20055;-67
2022/05/02 04:59:50;;;;;;;29.67;15.77;;;;;;;-149.78;100.00;50279.78;4716828;30;20052;-67
2022/05/02 05:02:16;;;;;;;33.25;16.92;;;;;;;-149.78;100.00;50342.38;4716764;30;20049;-67
2022/05/02 05:04:42;;;;;;;28.45;15.80;;;;;;;-149.78;100.00;50291.50;4701302;30;20491;-67
2022/05/02 05:07:07;;;;;;;32.15;16.05;;;;;;;-149.78;100.00;50326.72;4701250;30;20113;-67
2022/05/02 05:09:33;;;;;;;31.17;15.63;;;;;;;-149.78;100.00;50314.97;4716827;30;20506;-67
2022/05/02 05:12:29;;;;;;;35.03;16.92;;;;;;;-149.78;100.00;50311.06;4701293;30;20502;-67
2022/05/02 05:18:46;;;;;;;30.85;15.93;;;;;;;-149.78;100.00;50328.69;4700989;30;20053;-68
2022/05/02 05:21:32;;;;;;;28.83;15.52;;;;;;;-149.78;100.00;50338.44;4716505;30;20037;-67
2022/05/02 05:24:25;;;;;;;34.70;16.77;;;;;;;-149.78;100.00;50354.09;4716693;30;20041;-68
2022/05/02 05:26:57;;;;;;;33.60;15.80;;;;;;;-149.78;100.00;50311.06;4700921;30;20048;-68
2022/05/02 05:29:58;;;;;;;29.60;15.10;;;;;;;-149.78;100.00;50299.34;4716501;30;20041;-67
2022/05/02 05:32:43;;;;;;;30.35;16.73;;;;;;;-149.78;100.00;50291.50;4716352;30;20047;-67
2022/05/02 05:35:10;;;;;;;30.60;16.38;;;;;;;-149.78;100.00;50330.63;4716474;30;20037;-68
2022/05/02 05:37:54;;;;;;;30.55;17.00;;;;;;;-149.78;100.00;50322.81;4716409;30;20047;-68
2022/05/02 05:40:37;;;;;;;34.75;16.77;;;;;;;-149.78;100.00;50291.50;4716349;30;20574;-68
2022/05/02 05:43:21;;;;;;;33.58;16.90;;;;;;;-149.78;100.00;50314.97;4700828;30;20045;-67
2022/05/02 05:46:08;;;;;;;34.08;16.63;;;;;;;-149.78;100.00;50326.72;4716379;30;20120;-68
2022/05/02 05:48:58;;;;;;;35.85;17.52;;;;;;;-149.78;100.00;50320.84;4700662;30;20041;-68
2022/05/02 05:51:48;;;;;;;38.85;18.35;;;;;;;-149.78;100.00;50311.06;4710875;30;20055;-68
2022/05/02 05:54:48;;;;;;;32.25;17.38;;;;;;;-149.78;100.00;50291.50;4699626;30;20042;-68
2022/05/02 05:57:32;;;;;;;32.47;16.83;;;;;;;-149.78;100.00;50291.50;4706410;30;20038;-68
2022/05/02 06:00:06;;;;;;;34.03;17.05;;;;;;;-149.78;100.00;50314.97;4707594;30;20124;-67
2022/05/02 06:03:14;;;;;;;37.58;17.60;;;;;;;-149.78;100.00;50322.81;4709382;30;20051;-68
2022/05/02 06:05:45;;;;;;;29.13;16.08;;;;;;;-149.78;100.00;50299.34;4705259;30;20056;-68
2022/05/02 06:08:21;;;;;;;29.93;16.10;;;;;;;-149.78;100.00;50279.78;4674778;30;20053;-68
2022/05/02 06:10:50;;;;;;;31.30;17.02;;;;;;;-149.78;100.00;50334.53;4698340;30;20056;-68
2022/05/02 06:13:18;;;;;;;31.33;16.80;;;;;;;-149.78;100.00;50311.06;4713574;30;20128;-68
2022/05/02 06:18:38;;;;;;;30.58;15.57;;;;;;;-149.78;100.00;50336.50;4700986;30;20064;-68
2022/05/02 06:21:06;;;;;;;32.78;16.92;;;;;;;-149.78;100.00;50326.72;4704309;30;20053;-67
2022/05/02 06:23:37;;;;;;;35.55;17.58;;;;;;;-149.78;100.00;50338.44;4710748;30;20041;-68
2022/05/02 06:26:04;;;;;;;34.75;17.58;;;;;;;-149.78;100.00;50313.03;4714372;30;20044;-68
2022/05/02 06:28:34;;;;;;;31.73;17.23;;;;;;;-149.78;100.00;50311.06;4711272;30;20198;-69
2022/05/02 06:31:01;;;;;;;37.65;17.23;;;;;;;-149.78;100.00;50295.44;4693021;30;20045;-71
2022/05/02 06:33:28;;;;;;;29.88;15.63;;;;;;;-149.78;100.00;50307.16;4710827;30;20037;-71
2022/05/02 06:36:06;;;;;;;34.10;17.00;;;;;;;-149.78;100.00;50309.13;4716974;30;20095;-71
2022/05/02 06:39:05;;;;;;;32.53;17.02;;;;;;;-149.78;100.00;50297.38;4708916;30;20115;-70
2022/05/02 06:41:50;;;;;;;37.05;19.05;;;;;;;-149.78;100.00;50314.97;4692654;30;20032;-71
2022/05/02 06:44:22;;;;;;;35.55;17.60;;;;;;;-149.78;100.00;50303.25;4710917;30;20502;-70
2022/05/02 06:46:57;;;;;;;37.40;18.37;;;;;;;-149.78;100.00;50299.34;4712434;30;20044;-71
2022/05/02 06:49:25;;;;;;;32.45;16.63;;;;;;;-149.78;100.00;50289.56;4680990;30;20044;-71
2022/05/02 06:51:56;;;;;;;34.72;17.77;;;;;;;-149.78;100.00;50305.22;4712175;30;20471;-71
2022/05/02 06:54:30;;;;;;;35.30;18.10;;;;;;;-149.78;100.00;50299.34;4687038;30;20042;-71
2022/05/02 06:57:10;;;;;;;35.50;18.38;;;;;;;-149.78;100.00;50309.13;4707961;30;20166;-71
2022/05/02 06:59:43;;;;;;;31.52;16.80;;;;;;;-149.78;100.00;50328.69;4702852;30;20072;-71
2022/05/02 07:02:12;;;;;;;38.70;18.10;;;;;;;-149.78;100.00;50293.47;4693711;30;20133;-71
2022/05/02 07:04:49;;;;;;;37.45;18.67;;;;;;;-149.78;100.00;50273.91;4709527;30;20045;-72
2022/05/02 07:10:11;;;;;;;38.50;18.13;;;;;;;-149.78;100.00;50314.97;4794787;24;20083;-70
2022/05/02 07:13:03;;;;;;;42.30;18.35;;;;;;;-149.78;100.00;50283.69;4701606;30;20091;-70
2022/05/02 07:15:42;;;;;;;;;;;;;;;-149.78;100.00;50285.66;4703416;30;20053;-70
2022/05/02 07:18:29;;;;;;;36.63;19.33;;;;;;;-149.78;100.00;50322.81;4728047;30;20319;-71
2022/05/02 07:21:03;;;;;;;38.95;19.25;;;;;;;-149.78;100.00;50338.44;4736174;30;20443;-70
2022/05/02 07:23:47;;;;;;;39.13;20.30;;;;;;;-149.78;100.00;50270.00;4720209;30;20051;-70
2022/05/02 07:26:15;;;;;;;41.78;20.23;;;;;;;-149.78;100.00;50287.59;4734532;30;20537;-70
2022/05/02 07:28:48;;;;;;;38.45;19.38;;;;;;;-149.78;100.00;50293.47;4729742;30;20052;-70
2022/05/02 07:31:18;;;;;;;41.50;20.88;;;;;;;-149.78;100.00;50314.97;4717100;30;20055;-69
2022/05/02 07:33:47;;;;;;;40.53;20.40;;;;;;;-149.78;100.00;50291.50;4717728;30;20044;-69
2022/05/02 07:36:19;;;;;;;41.35;21.88;;;;;;;-149.78;100.00;50303.25;4701819;30;20063;-70
2022/05/02 07:38:47;;;;;;;46.00;20.63;;;;;;;-149.78;100.00;50320.84;4718096;30;20037;-70
2022/05/02 07:41:23;;;;;;;47.45;23.30;;;;;;;-149.78;100.00;50283.69;4718085;30;20127;-69
2022/05/02 07:43:52;;;;;;;51.97;22.27;;;;;;;-149.78;100.00;50307.16;4728036;30;20127;-69
2022/05/02 07:46:25;;;;;;;46.47;22.63;;;;;;;-149.78;100.00;50283.69;4735315;30;20044;-69
2022/05/02 07:48:52;;;;;;;46.42;20.48;;;;;;;-149.78;100.00;50305.22;4734202;30;20509;-70
2022/05/02 07:51:19;;;;;;;47.95;21.48;;;;;;;-149.78;100.00;50281.75;4735312;30;20633;-71
2022/05/02 07:53:45;;;;;;;47.63;24.05;;;;;;;-149.78;100.00;50299.34;4719777;30;20079;-70
2022/05/02 07:56:13;;;;;;;56.00;24.30;;;;;;;-149.78;100.00;50268.03;4730744;30;20486;-70
2022/05/02 07:58:45;;;;;;;53.10;25.48;;;;;;;-149.78;100.00;50299.34;4716939;30;20185;-70
2022/05/02 08:01:13;;;;;;;54.53;25.23;;;;;;;-149.78;100.00;50291.50;4717717;30;20053;-70
2022/05/02 08:03:38;;;;;;;55.53;24.45;;;;;;;-149.78;100.00;50271.97;4716833;30;20051;-70
2022/05/02 08:06:39;;;;;;;55.90;26.98;;;;;;;-149.78;100.00;50311.06;4716801;30;20115;-70
2022/05/02 08:09:48;;;;;;;56.60;24.63;;;;;;;-149.78;100.00;50271.97;4670814;30;20083;-69
2022/05/02 08:12:46;;;;;;;57.80;26.23;;;;;;;-149.78;100.00;50277.81;4715604;30;20045;-68
2022/05/02 08:15:19;;;;;;;59.22;25.35;;;;;;;-149.78;100.00;50262.19;4715394;30;20048;-69
2022/05/02 08:18:06;;;;;;;53.75;25.13;;;;;;;-149.78;100.00;50307.16;4717998;30;20071;-68
2022/05/02 08:21:05;;;;;;;56.33;26.40;;;;;;;-149.78;100.00;50268.03;4715293;30;20036;-70
2022/05/02 08:27:15;;;;;;;54.75;25.45;;;;;;;-149.78;100.00;50225.03;4716375;30;20098;-70
2022/05/02 08:30:09;;;;;;;50.08;24.35;;;;;;;-149.78;100.00;50283.69;4714501;30;20072;-70
2022/05/02 08:32:57;;;;;;;48.30;23.90;;;;;;;-149.78;100.00;50256.31;4716158;30;20474;-70
2022/05/02 08:35:56;;;;;;;54.47;24.02;;;;;;;-149.78;100.00;50264.13;4699954;30;20508;-70
2022/05/02 08:38:46;;;;;;;45.47;22.40;;;;;;;-149.78;100.00;50252.41;4699518;30;20048;-70
2022/05/02 08:41:24;;;;;;;49.00;23.40;;;;;;;-149.78;100.00;50279.78;4715284;30;20039;-70
2022/05/02 08:44:24;;;;;;;50.35;22.38;;;;;;;-149.78;100.00;50264.13;4714809;30;20025;-69
2022/05/02 08:46:50;;;;;;;48.15;23.08;;;;;;;-149.78;100.00;50236.75;4714784;30;20119;-70
2022/05/02 08:49:50;;;;;;;48.10;22.73;;;;;;;-149.78;100.00;50236.75;4715805;30;20128;-70
2022/05/02 08:52:45;;;;;;;45.85;21.80;;;;;;;-149.78;100.00;50234.81;4681542;30;20136;-69
2022/05/02 08:55:20;;;;;;;39.67;19.77;;;;;;;-149.78;100.00;50256.31;4715734;30;20048;-70
2022/05/02 08:58:01;;;;;;;38.92;19.33;;;;;;;-149.78;100.00;50250.44;4715702;30;20061;-70
2022/05/02 09:01:03;;;;;;;41.38;20.20;;;;;;;-149.78;100.00;50277.81;4715321;30;20037;-70
2022/05/02 09:03:51;;;;;;;;;;;;;;;-149.78;100.00;50256.31;4715911;30;20048;-70
2022/05/02 09:06:32;;;;;;;46.08;21.85;;;;;;;-149.78;100.00;50217.19;4714550;30;19919;-70
2022/05/02 09:08:58;;;;;;;44.20;21.88;;;;;;;-149.78;100.00;50264.13;4715412;30;20053;-70
2022/05/02 09:11:39;;;;;;;46.08;22.52;;;;;;;-149.78;100.00;50270.00;4715357;30;20041;-70
2022/05/02 09:14:44;;;;;;;41.38;19.77;;;;;;;-149.78;100.00;50248.50;4714972;30;20032;-70
2022/05/02 09:17:15;;;;;;;39.83;20.45;;;;;;;-149.78;100.00;50240.66;4716437;30;20119;-70
2022/05/02 09:20:13;;;;;;;41.33;20.83;;;;;;;-149.78;100.00;50217.19;4715328;30;20040;-70
2022/05/02 09:23:00;;;;;;;34.85;17.83;;;;;;;-149.78;100.00;50258.28;4684349;30;20105;-70
2022/05/02 09:26:03;;;;;;;39.15;19.42;;;;;;;-149.78;100.00;50238.72;4715354;30;20045;-70
2022/05/02 09:28:32;;;;;;;39.10;18.92;;;;;;;-149.78;100.00;50223.06;4699540;30;20047;-70
2022/05/02 09:31:10;;;;;;;37.47;19.15;;;;;;;-149.78;100.00;50270.00;4699849;30;20095;-70
2022/05/02 09:33:37;;;;;;;38.90;19.55;;;;;;;-149.78;100.00;50221.13;4699520;30;20165;-70
2022/05/02 09:36:17;;;;;;;38.78;19.20;;;;;;;-149.78;100.00;50248.50;4699318;30;20070;-70
2022/05/02 09:38:48;;;;;;;36.95;19.77;;;;;;;-149.78;100.00;50254.34;4699590;30;20087;-70
2022/05/02 09:41:49;;;;;;;40.13;20.45;;;;;;;-149.78;100.00;50230.88;4715059;30;20328;-70
2022/05/02 09:51:20;;;;;;;38.15;17.85;;;;;;;-149.78;100.00;50258.28;4714514;30;20045;-70
2022/05/02 09:57:21;;;;;;;34.85;18.52;;;;;;;-149.78;100.00;50254.34;4699135;30;20143;-70
2022/05/02 10:01:06;;;;;;;37.60;18.92;;;;;;;-149.78;100.00;50240.66;4685528;30;20359;-70
2022/05/02 10:02:46;;;;;;;36.47;18.55;;;;;;;-149.78;100.00;50236.75;4712968;30;20033;-70
2022/05/02 10:05:21;;;;;;;36.50;18.02;;;;;;;-149.78;100.00;50242.63;4714825;30;20043;-70
2022/05/02 10:07:57;;;;;;;36.80;18.40;;;;;;;-149.78;100.00;50225.03;4714842;30;20044;-70
2022/05/02 10:10:49;;;;;;;30.25;15.60;;;;;;;-149.78;100.00;50268.03;4698823;30;20076;-69
2022/05/02 10:13:26;;;;;;;28.75;15.40;;;;;;;-149.78;100.00;50240.66;4712949;30;20037;-70
2022/05/02 10:16:14;;;;;;;28.38;14.73;;;;;;;-149.78;100.00;50232.84;4712727;30;20037;-69
2022/05/02 10:18:52;;;;;;;33.67;16.35;;;;;;;-149.78;100.00;50205.47;4716203;30;20033;-69
2022/05/02 10:21:27;;;;;;;33.92;18.27;;;;;;;-149.78;100.00;50201.56;4714538;30;20041;-70
2022/05/02 10:24:16;;;;;;;29.15;16.23;;;;;;;-149.78;100.00;50228.94;4712606;30;20387;-70
2022/05/02 10:26:49;;;;;;;28.83;16.13;;;;;;;-149.78;100.00;50203.50;4684523;30;20041;-69
2022/05/02 10:29:25;;;;;;;31.88;17.17;;;;;;;-149.78;100.00;50209.38;4714977;30;20518;-69
2022/05/02 10:32:10;;;;;;;31.08;16.17;;;;;;;-149.78;100.00;50195.69;4714594;30;20033;-70
2022/05/02 10:34:38;;;;;;;31.13;16.98;;;;;;;-149.78;100.00;50178.09;4714660;30;20146;-70
2022/05/02 10:37:06;;;;;;;36.85;18.55;;;;;;;-149.78;100.00;50209.38;4714687;30;20057;-69
2022/05/02 10:39:47;;;;;;;36.25;18.70;;;;;;;-149.78;100.00;50277.81;4714634;30;20034;-71
2022/05/02 10:42:17;;;;;;;31.60;16.38;;;;;;;-149.78;100.00;50225.03;4714751;30;20099;-70
2022/05/02 10:44:55;;;;;;;27.02;15.23;;;;;;;-149.78;100.00;50205.47;4714629;30;20041;-71
2022/05/02 10:47:25;;;;;;;29.05;14.95;;;;;;;-149.78;100.00;50207.44;4714495;30;20037;-71
2022/05/02 10:49:58;;;;;;;24.10;13.48;;;;;;;-149.78;100.00;50228.94;4715161;30;20507;-71
2022/05/02 10:52:46;;;;;;;25.58;14.15;;;;;;;-149.78;100.00;50205.47;4701401;30;20038;-70
2022/05/02 10:55:33;;;;;;;26.38;14.85;;;;;;;-149.78;100.00;50209.38;4701824;30;20049;-71
2022/05/02 10:58:10;;;;;;;29.30;15.80;;;;;;;-149.78;100.00;50203.50;4717829;30;20132;-70
2022/05/02 11:00:56;;;;;;;30.27;15.77;;;;;;;-149.78;100.00;50228.94;4715674;30;20110;-71
2022/05/02 11:03:28;;;;;;;26.77;14.43;;;;;;;-149.78;100.00;50205.47;4716388;30;20437;-70
2022/05/02 11:06:32;;;;;;;30.15;15.02;;;;;;;-149.78;100.00;50205.47;4714845;30;20037;-70
2022/05/02 11:09:02;;;;;;;27.50;15.00;;;;;;;-149.78;100.00;50213.28;4712578;30;20123;-69
2022/05/02 11:11:32;;;;;;;28.25;15.05;;;;;;;-149.78;100.00;50209.38;4717573;30;20099;-69
2022/05/02 11:14:10;;;;;;;26.10;14.02;;;;;;;-149.78;100.00;50197.66;4718755;30;20054;-69
2022/05/02 11:17:17;;;;;;;32.45;15.70;;;;;;;-149.78;100.00;50201.56;4717537;30;20041;-70
2022/05/02 11:22:43;;;;;;;31.05;15.85;;;;;;;-149.78;100.00;50232.84;4716375;30;20433;-70
2022/05/02 11:25:20;;;;;;;26.20;14.68;;;;;;;-149.78;100.00;50221.13;4700928;30;20124;-71
2022/05/02 11:27:56;;;;;;;33.15;17.40;;;;;;;-149.78;100.00;50228.94;4716004;30;20059;-71
2022/05/02 11:30:45;;;;;;;29.95;16.05;;;;;;;-149.78;100.00;50221.13;4716487;30;20427;-70
2022/05/02 11:33:25;;;;;;;29.50;15.80;;;;;;;-149.78;100.00;50199.59;4714424;30;20041;-70
2022/05/02 11:36:00;;;;;;;27.33;15.10;;;;;;;-149.78;100.00;50205.47;4713629;30;20257;-70
2022/05/02 11:38:40;;;;;;;28.02;15.77;;;;;;;-149.78;100.00;50221.13;4700300;30;20081;-70
2022/05/02 11:41:18;;;;;;;27.02;15.35;;;;;;;-149.78;100.00;50228.94;4715256;30;20073;-70
2022/05/02 11:43:45;;;;;;;29.05;15.13;;;;;;;-149.78;100.00;50248.50;4685000;30;20134;-70
2022/05/02 11:46:24;;;;;;;32.70;18.45;;;;;;;-149.78;100.00;50268.03;4715766;30;20111;-70
2022/05/02 11:49:02;;;;;;;33.22;18.17;;;;;;;-149.78;100.00;50244.59;4716299;30;20029;-70
2022/05/02 11:51:53;;;;;;;29.27;15.95;;;;;;;-149.78;100.00;50217.19;4716748;30;20037;-70
2022/05/02 11:54:28;;;;;;;27.50;15.43;;;;;;;-149.78;100.00;50221.13;4715322;30;20041;-70